x

Santa Monica Basin - 33nm Wsw Of Santa Monica, Ca (46025) Wave Buoy

10:50 - Tue 4th Aug 2015 All times are PDT. -7 hours from GMT.

  • Sig Wave height 4.9ft
  • Swell Direction
  • Peak Period 6s
  • Average Period 5s
  • Wind
    9mph, 11mph gusts
  • Sea Temp 72°f
  • Aire Temp 70°f
  • Sea Pressure 1012.7mb
  • Santa Monica Basin - 33nm Wsw Of Santa Monica, Ca
  • Santa Monica Basin - 33nm Wsw Of Santa Monica, Ca

More Historic Weather Station data

Upgrade to MSW Pro to gain access to the past 30 days of data for over 8000 Wavebouys and Weather Stations around the globe.

Join Pro

Comparision Forecast

View Surf forecast
   
mar 08/04 10:50 5ft 6s 5s 9 11 mph 1012.7mb 72f 70f
9:50 5.5ft 6s 5s 11 16 mph 1012.5mb 72f 70f
8:50 5.5ft 6s 5s 16 18 mph 1012.3mb 72f 70f
7:50 5ft 6s 5s 16 18 mph 1012mb 72f 71f
6:50 4.5ft 6s 5s 18 20 mph 1012mb 72f 71f
5:50 4ft 5s 5s 11 13 mph 1012.4mb 73f 72f
4:50 3.5ft 15s 5s 13 16 mph 1012.7mb 73f 71f
3:50 3.5ft 5s 5s 7 9 mph 1012.8mb 73f 71f
2:50 3ft 6s 5s 11
mph
1013.6mb 73f 71f
1:50 2.5ft 15s 5s 9 11 mph 1014.1mb 73f 71f
12:50 3ft 15s 5s 9
mph
1014.1mb 73f 70f
11:50 3ft 6s 5s 4 7 mph 1014.1mb 72f 70f
10:50 3.5ft 15s 5s 7
mph
1013.9mb 72f 69f
9:50 3.5ft 6s 5s 7 9 mph 1013.5mb 72f 69f
8:50 3.5ft 6s 5s 13 16 mph 1013.3mb 72f 70f
7:50 4.5ft 6s 5s 7 9 mph 1013.2mb 72f 70f
6:50 4.5ft 6s 5s 7 9 mph 1012.4mb 72f 70f
5:50 4.5ft 7s 5s 11 13 mph 1011.8mb 72f 70f
4:50 4ft 6s 5s 9 13 mph 1011.6mb 72f 70f
3:50 4ft 6s 5s 16 20 mph 1011.3mb 71f 70f
2:50 4ft 6s 5s 11 13 mph 1011.5mb 71f 69f
1:50 4ft 15s 5s 11
mph
1011.1mb 71f 70f
12:50 4ft 7s 5s 4 7 mph 1011.5mb 71f 71f
lun 08/03 11:50 4.5ft 6s 5s 9
mph
1011.5mb 71f 70f
10:50 4.5ft 6s 5s 9
mph
1011.7mb 71f 70f
9:50 4.5ft 5s 5s 11 13 mph 1011.5mb 71f 70f
8:50 4.5ft 6s 5s 9 11 mph 1011.1mb 72f 71f
7:50 4ft 6s 5s 7
mph
1010.8mb 72f 71f
6:50 3ft 15s 5s 4 7 mph 1011mb 72f 72f
5:50 2.5ft 15s 5s 7 9 mph 1011.3mb 73f 72f
4:50 2.5ft 15s 5s 7 9 mph 1011.6mb 73f 71f
3:50 2.5ft 15s 5s 7 9 mph 1012.1mb 73f 70f
2:50 2.5ft 15s 5s 4
mph
1012.2mb 73f 70f
1:50 2.5ft 16s 5s 7
mph
1012.8mb 73f 69f
12:50 2.5ft 16s 5s 7 11 mph 1013.2mb 73f 70f
11:50 2.5ft 7s 5s 2 4 mph 1013.2mb 72f 70f
10:50 3ft 6s 5s  -  2 mph 1013.1mb 73f 71f
9:50 3.5ft 6s 5s 2 7 mph 1013mb 72f 69f
8:50 3.5ft 15s 5s 4
mph
1013.1mb 72f 70f
7:50 4ft 6s 5s 7 9 mph 1012.3mb 72f 69f
6:50 3.5ft 6s 5s 9 11 mph 1011.6mb 72f 69f
5:50 3.5ft 7s 5s 7 9 mph 1011.5mb 72f 68f
4:50 3.5ft 7s 6s 4 7 mph 1011.3mb 72f 68f
3:50 3.5ft 6s 5s 4 7 mph 1011.3mb 72f 68f
2:50 4ft 6s 5s 7 9 mph 1010.8mb 72f 68f
1:50 3.5ft 7s 5s 7 9 mph 1011.1mb 73f 69f
12:50 3.5ft 6s 5s 9 11 mph 1010.9mb 73f 69f
dom 08/02 11:50 3.5ft 6s 5s 2 4 mph 1010.6mb 73f 70f
10:50 4ft 6s 5s  -  2 mph 1010.5mb 73f 70f
9:50 3.5ft 6s 5s 4 7 mph 1010.3mb 73f 70f
8:50 3.5ft 6s 5s 7 9 mph 1009.9mb 73f 71f
7:50 3.5ft 5s 5s 7 9 mph 1009.8mb 73f 71f
6:50 3ft 6s 5s 11 13 mph 1010mb 73f 71f
5:50 2.5ft 7s 5s 7
mph
1010.4mb 73f 70f
4:50 2.5ft 7s 5s 7 9 mph 1010.8mb 73f 70f
3:50 2.5ft 14s 5s 9 11 mph 1011.4mb 75f 70f
2:50 2.5ft 14s 5s 11 13 mph 1012mb 75f 70f
1:50 2.5ft 13s 5s 4 7 mph 1012.5mb 75f 70f
12:50 2.5ft 14s 5s 2 4 mph 1012.9mb 73f 69f
11:50 2.5ft 14s 5s 2 4 mph 1013.1mb 73f 69f
10:50 3ft 14s 5s 2 4 mph 1013.2mb 73f 69f
9:50 3.5ft 5s 5s  -  2 mph 1013.4mb 72f 69f
8:50 3.5ft 6s 5s 2 4 mph 1013.2mb 72f 68f
7:50 3.5ft 6s 6s 2 4 mph 1012.8mb 72f 69f
6:50 3ft 6s 6s 2 4 mph 1012.5mb 72f 68f
5:50 3ft 6s 6s 4
mph
1011.9mb 72f 68f
4:50 3.5ft 7s 6s 7
mph
1011.7mb 72f 69f
3:50 3ft 7s 6s 2
mph
1011.7mb 72f 69f
2:50 3ft 14s 6s 4
mph
1011.7mb 72f 69f
1:50 3.5ft 7s 6s 4 7 mph 1011.9mb 73f 69f
12:50 3.5ft 6s 6s 7 9 mph 1012.3mb 73f 69f
sáb 08/01 11:50 3.5ft 6s 5s 4
mph
1012.6mb 73f 69f
10:50 3.5ft 6s 5s 7 9 mph 1012.6mb 73f 69f
9:50 3.5ft 6s 5s 4 7 mph 1012.5mb 73f 70f
8:50 3ft 14s 5s 7
mph
1012.1mb 74f 70f
7:50 3ft 14s 5s 7 11 mph 1011.8mb 74f 70f
6:50 2.5ft 15s 5s 11 16 mph 1011.9mb 74f 70f
5:50 2.5ft 13s 6s 11 13 mph 1012.3mb 74f 69f
4:50 2ft 13s 6s 11 13 mph 1012.7mb 75f 70f
3:50 2ft 15s 6s 9 11 mph 1013.1mb 75f 70f
2:50 2ft 14s 6s 7 9 mph 1013.3mb 75f 70f
1:50 2.5ft 13s 6s 2 4 mph 1014mb 75f 70f
12:50 2.5ft 14s 6s 4
mph
1014.4mb 75f 69f
11:50 2.5ft 14s 6s 4 7 mph 1014.9mb 74f 69f
10:50 2.5ft 14s 6s 2 4 mph 1015mb 74f 70f
9:50 3ft 15s 6s  -  2 mph 1015.2mb 74f 69f
8:50 3ft 14s 5s 2 4 mph 1015.3mb 73f 69f
7:50 3ft 15s 6s 7
mph
1015.2mb 74f 69f